Time;durP1;ratioP1;P1;durP2;ratioP2;P2;SDS_P1;SDS_P2;PMS_P1;PMS_P2;Temp;Humidity;BMP_temperature;BMP_pressure;BME280_temperature;BME280_humidity;BME280_pressure;Samples;Min_cycle;Max_cycle;Signal;HPM_P1;HPM_P2
2022/06/30 00:00:01;;;;;;;13.50;8.98;;;18.30;99.90;;;;;;4996684;28;20030;-55
2022/06/30 00:02:26;;;;;;;15.05;10.50;;;18.30;99.90;;;;;;4991499;28;20060;-56
2022/06/30 00:04:52;;;;;;;13.60;10.15;;;18.30;99.90;;;;;;4991256;28;20607;-52
2022/06/30 00:07:18;;;;;;;12.80;10.10;;;18.20;99.90;;;;;;4991261;28;20046;-56
2022/06/30 00:09:44;;;;;;;12.10;10.43;;;18.20;99.90;;;;;;4993731;28;20040;-57
2022/06/30 00:12:10;;;;;;;13.73;10.98;;;18.20;99.90;;;;;;4991864;28;20463;-57
2022/06/30 00:14:35;;;;;;;15.52;11.15;;;18.20;99.90;;;;;;4996320;28;20030;-55
2022/06/30 00:17:01;;;;;;;13.00;10.63;;;18.20;99.90;;;;;;4992155;28;20325;-57
2022/06/30 00:19:26;;;;;;;14.02;10.98;;;18.20;99.90;;;;;;4997786;28;20034;-55
2022/06/30 00:21:52;;;;;;;14.23;10.85;;;18.20;99.90;;;;;;4990384;28;20124;-53
2022/06/30 00:24:17;;;;;;;13.40;10.13;;;18.20;99.90;;;;;;4994010;28;20101;-55
2022/06/30 00:26:43;;;;;;;11.70;10.45;;;18.30;99.90;;;;;;4991237;28;20562;-54
2022/06/30 00:29:11;;;;;;;11.90;9.95;;;18.30;99.90;;;;;;4992663;28;20109;-55
2022/06/30 00:31:36;;;;;;;12.05;10.40;;;18.30;99.90;;;;;;4983635;28;20488;-57
2022/06/30 00:34:02;;;;;;;14.80;10.73;;;18.20;99.90;;;;;;4991804;28;20045;-56
2022/06/30 00:36:28;;;;;;;11.45;10.32;;;18.20;99.90;;;;;;4994598;28;20034;-55
2022/06/30 00:38:53;;;;;;;19.17;12.77;;;18.20;99.90;;;;;;4986603;28;20455;-55
2022/06/30 00:41:19;;;;;;;16.30;10.85;;;18.10;99.90;;;;;;4983576;28;20035;-57
2022/06/30 00:43:46;;;;;;;18.67;11.85;;;18.00;99.90;;;;;;4991610;28;20045;-56
2022/06/30 00:46:12;;;;;;;14.98;11.70;;;18.00;99.90;;;;;;4990746;28;20038;-57
2022/06/30 00:48:38;;;;;;;18.65;15.63;;;17.90;99.90;;;;;;4993040;28;20058;-57
2022/06/30 00:51:05;;;;;;;26.35;19.60;;;17.90;99.90;;;;;;4990657;28;20492;-55
2022/06/30 00:53:35;;;;;;;17.02;14.77;;;17.80;99.90;;;;;;4993968;28;20137;-55
2022/06/30 00:56:05;;;;;;;15.48;13.23;;;17.70;99.90;;;;;;4980155;28;20098;-54
2022/06/30 00:58:35;;;;;;;16.17;13.50;;;17.70;99.90;;;;;;4988854;28;20508;-53
2022/06/30 01:01:04;;;;;;;17.65;12.25;;;17.70;99.90;;;;;;4988805;28;20444;-52
2022/06/30 01:03:32;;;;;;;15.05;12.80;;;17.70;99.90;;;;;;4991162;28;20165;-54
2022/06/30 01:06:00;;;;;;;16.02;12.13;;;17.60;99.90;;;;;;4986256;28;20037;-56
2022/06/30 01:08:27;;;;;;;14.18;12.15;;;17.60;99.90;;;;;;4988074;28;20050;-57
2022/06/30 01:13:38;;;;;;;18.83;12.07;;;17.50;99.90;;;;;;4984113;28;20116;-56
2022/06/30 01:16:04;;;;;;;14.00;12.43;;;17.50;99.90;;;;;;4991627;28;20074;-52
2022/06/30 01:18:33;;;;;;;15.57;12.15;;;17.50;99.90;;;;;;4991289;28;20553;-57
2022/06/30 01:20:59;;;;;;;20.02;13.05;;;17.50;99.90;;;;;;4992399;28;20037;-55
2022/06/30 01:23:24;;;;;;;16.13;12.52;;;17.50;99.90;;;;;;4998901;28;20030;-55
2022/06/30 01:25:51;;;;;;;18.27;12.57;;;17.50;99.90;;;;;;4997712;28;20100;-58
2022/06/30 01:28:17;;;;;;;15.88;12.63;;;17.60;99.90;;;;;;4992963;28;20029;-55
2022/06/30 01:30:43;;;;;;;20.95;13.25;;;17.50;99.90;;;;;;4985486;28;20027;-58
2022/06/30 01:33:08;;;;;;;16.00;13.73;;;17.50;99.90;;;;;;4981108;28;20034;-57
2022/06/30 01:35:34;;;;;;;14.57;12.98;;;17.50;99.90;;;;;;4993141;28;20484;-57
2022/06/30 01:38:01;;;;;;;16.92;13.68;;;17.50;99.90;;;;;;4991617;28;20564;-56
2022/06/30 01:40:29;;;;;;;14.98;13.40;;;17.50;99.90;;;;;;4986759;28;20484;-55
2022/06/30 01:42:56;;;;;;;18.67;14.52;;;17.60;99.90;;;;;;4980094;28;20105;-59
2022/06/30 01:45:22;;;;;;;14.50;13.00;;;17.60;99.90;;;;;;4989669;28;20038;-56
2022/06/30 01:47:49;;;;;;;15.55;12.80;;;17.60;99.90;;;;;;4992513;28;20037;-53
2022/06/30 01:50:18;;;;;;;17.95;13.60;;;17.70;99.90;;;;;;4991409;28;20514;-52
2022/06/30 01:52:43;;;;;;;15.23;13.63;;;17.70;99.90;;;;;;4992991;28;20113;-55
2022/06/30 01:55:10;;;;;;;18.27;14.10;;;17.70;99.90;;;;;;4990244;28;20125;-55
2022/06/30 01:57:37;;;;;;;17.38;14.38;;;17.70;99.90;;;;;;4994385;28;20026;-53
2022/06/30 02:00:27;;;;;;;15.27;13.45;;;17.70;99.90;;;;;;4989701;28;20045;-54
2022/06/30 02:02:54;;;;;;;15.23;13.63;;;17.70;99.90;;;;;;4988342;28;20590;-51
2022/06/30 02:05:21;;;;;;;15.82;13.82;;;17.70;99.90;;;;;;4992643;28;20510;-56
2022/06/30 02:07:46;;;;;;;20.05;14.43;;;17.60;99.90;;;;;;4989770;28;20883;-54
2022/06/30 02:10:19;;;;;;;18.05;13.55;;;17.70;99.90;;;;;;4993365;28;20042;-56
2022/06/30 02:12:47;;;;;;;17.92;15.18;;;17.70;99.90;;;;;;4993674;28;20095;-56
2022/06/30 02:15:16;;;;;;;16.35;14.50;;;17.70;99.90;;;;;;4993926;28;20022;-53
2022/06/30 02:17:43;;;;;;;18.95;14.07;;;17.60;99.90;;;;;;4993693;28;20109;-57
2022/06/30 02:20:09;;;;;;;20.52;15.65;;;17.60;99.90;;;;;;4992210;28;20033;-56
2022/06/30 02:22:36;;;;;;;16.42;14.73;;;17.50;99.90;;;;;;4992319;28;20038;-57
2022/06/30 02:25:03;;;;;;;17.92;16.08;;;17.40;99.90;;;;;;4993553;28;20423;-56
2022/06/30 02:27:28;;;;;;;17.05;15.25;;;17.40;99.90;;;;;;4992906;28;20489;-57
2022/06/30 02:29:54;;;;;;;19.98;15.98;;;17.40;99.90;;;;;;4995425;28;20150;-56
2022/06/30 02:32:21;;;;;;;17.75;15.85;;;17.40;99.90;;;;;;4992870;28;20054;-55
2022/06/30 02:34:48;;;;;;;17.77;15.90;;;17.40;99.90;;;;;;4989829;28;20378;-57
2022/06/30 02:37:14;;;;;;;19.77;15.68;;;17.50;99.90;;;;;;4991633;28;20046;-57
2022/06/30 02:39:39;;;;;;;20.00;15.65;;;17.50;99.90;;;;;;4992836;28;20033;-56
2022/06/30 02:42:05;;;;;;;17.85;15.20;;;17.50;99.90;;;;;;4993757;28;20065;-53
2022/06/30 02:44:31;;;;;;;16.00;14.20;;;17.50;99.90;;;;;;4993188;28;20030;-53
2022/06/30 02:46:56;;;;;;;22.95;15.48;;;17.50;99.90;;;;;;4993009;28;20041;-54
2022/06/30 02:49:22;;;;;;;18.23;16.27;;;17.40;99.90;;;;;;4993080;28;20102;-52
2022/06/30 02:51:48;;;;;;;19.52;15.63;;;17.30;99.90;;;;;;4992540;28;20551;-54
2022/06/30 02:54:14;;;;;;;19.15;15.77;;;17.30;99.90;;;;;;5006806;28;20026;-51
2022/06/30 02:56:40;;;;;;;18.45;16.63;;;17.20;99.90;;;;;;4993032;28;20037;-54
2022/06/30 02:59:06;;;;;;;21.42;16.67;;;17.20;99.90;;;;;;4990846;28;20075;-51
2022/06/30 03:01:31;;;;;;;18.25;16.23;;;17.10;99.90;;;;;;4991959;28;20127;-51
2022/06/30 03:03:59;;;;;;;19.35;16.38;;;17.10;99.90;;;;;;4993402;28;20030;-50
2022/06/30 03:06:26;;;;;;;18.67;16.00;;;17.10;99.90;;;;;;4993153;28;20057;-52
2022/06/30 03:08:52;;;;;;;19.55;16.10;;;17.00;99.90;;;;;;4992864;28;20121;-52
2022/06/30 03:11:17;;;;;;;19.58;16.27;;;17.00;99.90;;;;;;4993533;28;20149;-52
2022/06/30 03:13:46;;;;;;;18.77;16.27;;;16.90;99.90;;;;;;4988282;28;20515;-52
2022/06/30 03:16:12;;;;;;;17.42;15.50;;;16.90;99.90;;;;;;4989656;28;20034;-55
2022/06/30 03:18:39;;;;;;;16.15;14.45;;;16.80;99.90;;;;;;4992384;28;20036;-55
2022/06/30 03:21:05;;;;;;;16.15;14.38;;;16.70;99.90;;;;;;4993007;28;20014;-54
2022/06/30 03:23:31;;;;;;;17.25;14.50;;;16.70;99.90;;;;;;4992725;28;20511;-55
2022/06/30 03:25:57;;;;;;;18.13;15.25;;;16.70;99.90;;;;;;4991974;28;20101;-57
2022/06/30 03:28:23;;;;;;;24.27;18.42;;;16.70;99.90;;;;;;4992253;28;20034;-54
2022/06/30 03:30:48;;;;;;;19.83;17.55;;;16.70;99.90;;;;;;4991985;28;20427;-55
2022/06/30 03:33:15;;;;;;;20.15;17.25;;;16.70;99.90;;;;;;4989800;28;20026;-55
2022/06/30 03:35:41;;;;;;;20.08;17.10;;;16.70;99.90;;;;;;4989745;28;20035;-57
2022/06/30 03:38:06;;;;;;;20.80;18.40;;;16.60;99.90;;;;;;4992959;28;20048;-56
2022/06/30 03:40:33;;;;;;;23.65;18.67;;;16.60;99.90;;;;;;4991779;28;20480;-56
2022/06/30 03:42:59;;;;;;;23.30;18.48;;;16.60;99.90;;;;;;4991295;28;20590;-54
2022/06/30 03:45:26;;;;;;;20.40;17.90;;;16.50;99.90;;;;;;4992929;28;20033;-56
2022/06/30 03:47:52;;;;;;;25.05;18.23;;;16.60;99.90;;;;;;4992784;28;20039;-56
2022/06/30 03:50:17;;;;;;;18.98;16.98;;;16.60;99.90;;;;;;4991253;28;20033;-54
2022/06/30 03:52:43;;;;;;;22.88;19.13;;;16.60;99.90;;;;;;4993657;28;20035;-53
2022/06/30 03:55:09;;;;;;;21.05;18.77;;;16.70;99.90;;;;;;4991246;28;20473;-55
2022/06/30 03:57:35;;;;;;;21.80;18.63;;;16.70;99.90;;;;;;4990152;28;20027;-54
2022/06/30 04:00:01;;;;;;;24.73;18.27;;;16.80;99.90;;;;;;4991705;28;20030;-55
2022/06/30 04:02:27;;;;;;;22.35;19.15;;;16.90;99.90;;;;;;4991631;28;20034;-55
2022/06/30 04:04:52;;;;;;;23.35;19.70;;;17.00;99.90;;;;;;4991891;28;20117;-52
2022/06/30 04:07:18;;;;;;;20.05;17.95;;;17.10;99.90;;;;;;4990363;28;20113;-54
2022/06/30 04:09:43;;;;;;;20.42;17.10;;;17.20;99.90;;;;;;4993242;28;20081;-57
2022/06/30 04:12:09;;;;;;;24.33;18.10;;;17.40;99.90;;;;;;4991035;28;20117;-55
2022/06/30 04:14:35;;;;;;;19.65;15.82;;;17.50;99.90;;;;;;4991972;28;20077;-54
2022/06/30 04:17:00;;;;;;;23.17;15.95;;;17.50;99.90;;;;;;4992490;28;20468;-52
2022/06/30 04:19:27;;;;;;;19.25;16.05;;;17.60;99.90;;;;;;4987943;28;20036;-56
2022/06/30 04:21:52;;;;;;;17.95;14.95;;;17.70;99.90;;;;;;4989601;28;20804;-54
2022/06/30 04:24:18;;;;;;;17.10;14.88;;;17.70;99.90;;;;;;4990509;28;20034;-55
2022/06/30 04:26:44;;;;;;;16.63;14.75;;;17.70;99.90;;;;;;4990122;28;20026;-55
2022/06/30 04:29:09;;;;;;;19.98;15.20;;;17.70;99.90;;;;;;4990699;28;20089;-54
2022/06/30 04:34:21;;;;;;;;;;;17.70;99.90;;;;;;4984036;28;20037;-52
2022/06/30 04:36:46;;;;;;;16.33;13.82;;;17.80;99.90;;;;;;4992897;28;19909;-56
2022/06/30 04:39:12;;;;;;;17.15;13.15;;;18.70;99.90;;;;;;4993852;28;20120;-57
2022/06/30 04:41:38;;;;;;;14.98;10.95;;;19.90;99.90;;;;;;4990849;28;20031;-56
2022/06/30 04:44:05;;;;;;;13.13;9.75;;;21.30;99.90;;;;;;4992559;28;20057;-55
2022/06/30 04:46:31;;;;;;;12.25;8.68;;;22.60;99.90;;;;;;4992659;28;20541;-52
2022/06/30 04:48:57;;;;;;;9.52;8.20;;;24.10;99.90;;;;;;4990444;28;20117;-56
2022/06/30 04:51:23;;;;;;;10.98;7.97;;;24.80;99.90;;;;;;4991449;28;20102;-56
2022/06/30 04:53:49;;;;;;;14.23;8.73;;;26.20;99.90;;;;;;4987398;28;20496;-52
2022/06/30 04:56:15;;;;;;;8.30;7.50;;;27.10;97.80;;;;;;4987856;28;20042;-57
2022/06/30 04:58:41;;;;;;;11.60;8.43;;;27.60;95.90;;;;;;4990381;28;20026;-56
2022/06/30 05:01:07;;;;;;;11.32;7.70;;;28.00;94.90;;;;;;4992716;28;20026;-57
2022/06/30 05:03:33;;;;;;;8.32;7.45;;;28.00;93.80;;;;;;4988736;28;20033;-55
2022/06/30 05:05:59;;;;;;;8.55;7.75;;;28.20;93.10;;;;;;4992314;28;20435;-55
2022/06/30 05:08:26;;;;;;;11.82;8.20;;;28.70;92.30;;;;;;4989541;28;20040;-56
2022/06/30 05:10:52;;;;;;;8.15;7.35;;;29.60;90.40;;;;;;4991256;28;20034;-57
2022/06/30 05:13:17;;;;;;;7.95;7.18;;;29.60;90.10;;;;;;4989363;28;20096;-56
2022/06/30 05:15:45;;;;;;;7.68;6.97;;;29.20;90.30;;;;;;4990199;28;20023;-54
2022/06/30 05:18:11;;;;;;;8.10;6.82;;;29.70;90.30;;;;;;4990855;28;20022;-57
2022/06/30 05:20:37;;;;;;;9.38;6.15;;;30.20;88.40;;;;;;4984249;28;20060;-57
2022/06/30 05:23:03;;;;;;;13.10;6.40;;;31.00;86.70;;;;;;4985834;28;20033;-56
2022/06/30 05:28:13;;;;;;;7.20;6.50;;;30.50;87.00;;;;;;4988709;28;20026;-55
2022/06/30 05:30:41;;;;;;;7.78;7.07;;;30.90;85.20;;;;;;4989517;28;20034;-57
2022/06/30 05:33:07;;;;;;;7.93;6.57;;;31.20;82.80;;;;;;4989275;28;20026;-58
2022/06/30 05:35:32;;;;;;;7.68;6.78;;;31.50;82.00;;;;;;4987125;28;20361;-58
2022/06/30 05:37:58;;;;;;;12.15;6.60;;;31.70;80.80;;;;;;4994291;28;20034;-57
2022/06/30 05:40:24;;;;;;;7.22;6.53;;;31.90;81.50;;;;;;5017355;23;20193;-54
2022/06/30 05:42:49;;;;;;;7.13;6.22;;;32.80;78.80;;;;;;4993863;28;20022;-60
2022/06/30 05:45:15;;;;;;;6.32;5.72;;;33.20;76.90;;;;;;4989860;28;20092;-60
2022/06/30 05:47:52;;;;;;;8.13;6.15;;;33.50;77.00;;;;;;4991437;28;20042;-60
2022/06/30 05:50:20;;;;;;;13.82;6.15;;;33.30;74.00;;;;;;4984903;28;20401;-60
2022/06/30 05:52:46;;;;;;;8.15;6.63;;;33.10;76.50;;;;;;4981660;28;20026;-60
2022/06/30 05:55:12;;;;;;;8.38;6.38;;;33.80;73.90;;;;;;4985032;28;20167;-61
2022/06/30 05:57:53;;;;;;;6.63;6.03;;;34.40;72.40;;;;;;4982038;28;20069;-61
2022/06/30 06:00:20;;;;;;;8.93;6.60;;;34.20;72.50;;;;;;4983389;28;20034;-58
2022/06/30 06:02:46;;;;;;;6.22;5.28;;;34.30;70.60;;;;;;4986571;28;20528;-61
2022/06/30 06:05:11;;;;;;;8.45;6.10;;;33.50;72.80;;;;;;4980939;28;20034;-57
2022/06/30 06:07:37;;;;;;;7.97;6.88;;;33.30;72.60;;;;;;4983181;28;20030;-60
2022/06/30 06:10:03;;;;;;;7.53;6.15;;;33.10;73.20;;;;;;4983782;28;20023;-59
2022/06/30 06:12:29;;;;;;;8.05;5.65;;;33.60;72.10;;;;;;4981631;28;20025;-59
2022/06/30 06:14:55;;;;;;;7.53;6.18;;;33.80;72.40;;;;;;4982619;28;20030;-60
2022/06/30 06:17:20;;;;;;;6.07;5.47;;;34.70;70.90;;;;;;4982515;28;20045;-60
2022/06/30 06:19:46;;;;;;;7.05;6.22;;;34.80;71.40;;;;;;4984908;28;20384;-60
2022/06/30 06:22:12;;;;;;;6.90;5.85;;;34.00;70.40;;;;;;4982850;28;20543;-60
2022/06/30 06:24:37;;;;;;;8.45;5.75;;;34.30;71.00;;;;;;4978444;28;20030;-60
2022/06/30 06:27:03;;;;;;;8.50;6.10;;;34.50;69.30;;;;;;4979747;28;20026;-58
2022/06/30 06:29:29;;;;;;;8.05;6.20;;;34.60;68.70;;;;;;4983523;28;20544;-59
2022/06/30 06:31:55;;;;;;;7.40;6.28;;;34.90;69.90;;;;;;4985935;28;20073;-61
2022/06/30 06:34:21;;;;;;;7.25;5.75;;;35.40;67.90;;;;;;4982819;28;20027;-51
2022/06/30 06:36:46;;;;;;;6.18;5.68;;;36.10;68.30;;;;;;4976242;28;20377;-60
2022/06/30 06:39:12;;;;;;;7.25;6.15;;;35.50;66.90;;;;;;4982574;28;20077;-60
2022/06/30 06:41:38;;;;;;;7.40;6.13;;;36.40;66.50;;;;;;4977777;28;20512;-54
2022/06/30 06:44:04;;;;;;;8.30;5.55;;;36.50;65.20;;;;;;4975752;28;20512;-57
2022/06/30 06:46:30;;;;;;;8.43;5.30;;;37.10;66.30;;;;;;4969727;28;20034;-58
2022/06/30 06:49:00;;;;;;;9.70;6.50;;;37.50;65.00;;;;;;4974128;28;20031;-60
2022/06/30 06:51:27;;;;;;;5.97;5.37;;;37.40;63.70;;;;;;4977194;28;20026;-60
2022/06/30 06:53:53;;;;;;;7.45;5.95;;;37.90;64.00;;;;;;4974051;28;20039;-60
2022/06/30 06:56:19;;;;;;;6.88;5.45;;;38.60;62.70;;;;;;4981361;28;20035;-59
2022/06/30 06:58:45;;;;;;;8.55;6.03;;;37.00;63.50;;;;;;4975477;28;20027;-60
2022/06/30 07:01:10;;;;;;;7.25;5.93;;;36.90;64.00;;;;;;4980071;28;20113;-61
2022/06/30 07:03:37;;;;;;;8.25;5.93;;;36.30;64.30;;;;;;4977094;28;20027;-59
2022/06/30 07:06:03;;;;;;;7.97;6.05;;;37.10;64.60;;;;;;4975570;28;20030;-59
2022/06/30 07:08:28;;;;;;;7.20;6.50;;;36.70;63.70;;;;;;4977098;28;20799;-60
2022/06/30 07:10:56;;;;;;;6.57;5.97;;;36.90;63.10;;;;;;4971656;28;20113;-58
2022/06/30 07:13:23;;;;;;;9.95;6.22;;;37.90;62.60;;;;;;4975464;28;20063;-60
2022/06/30 07:15:48;;;;;;;6.45;5.90;;;38.10;62.20;;;;;;4973218;28;20030;-61
2022/06/30 07:18:14;;;;;;;6.50;5.90;;;37.30;63.90;;;;;;4975937;28;20038;-60
2022/06/30 07:20:39;;;;;;;8.40;6.00;;;37.30;62.40;;;;;;4969360;28;20650;-60
2022/06/30 07:23:05;;;;;;;9.95;6.30;;;36.90;61.80;;;;;;4967937;28;20399;-61
2022/06/30 07:25:30;;;;;;;6.25;5.65;;;36.60;63.40;;;;;;4965776;28;20082;-61
2022/06/30 07:27:56;;;;;;;6.40;5.45;;;37.50;62.90;;;;;;4981719;28;20432;-61
2022/06/30 07:30:22;;;;;;;6.95;5.50;;;37.60;62.80;;;;;;4974880;28;20027;-61
2022/06/30 07:32:47;;;;;;;6.35;5.70;;;37.90;62.00;;;;;;4973099;28;20507;-62
2022/06/30 07:35:13;;;;;;;9.40;6.13;;;37.60;61.50;;;;;;4974168;28;20023;-61
2022/06/30 07:37:40;;;;;;;7.05;6.00;;;37.50;62.00;;;;;;4983490;28;20034;-61
2022/06/30 07:40:06;;;;;;;6.28;5.68;;;37.10;61.80;;;;;;4985023;28;20552;-62
2022/06/30 07:42:32;;;;;;;8.70;5.50;;;36.90;61.90;;;;;;4980015;28;20110;-61
2022/06/30 07:44:58;;;;;;;10.23;5.35;;;37.60;61.90;;;;;;4981692;28;20022;-61
2022/06/30 07:47:24;;;;;;;5.97;5.32;;;37.40;60.20;;;;;;4975985;28;20596;-62
2022/06/30 07:49:50;;;;;;;6.85;5.40;;;37.90;60.90;;;;;;4974930;28;20038;-62
2022/06/30 07:52:15;;;;;;;8.93;5.18;;;37.90;60.50;;;;;;4973736;28;20102;-61
2022/06/30 07:54:41;;;;;;;8.38;5.68;;;37.90;60.40;;;;;;4973552;28;20106;-62
2022/06/30 07:57:07;;;;;;;8.75;5.25;;;39.00;59.60;;;;;;4968644;28;20055;-58
2022/06/30 07:59:32;;;;;;;5.15;4.70;;;38.30;59.30;;;;;;4973329;28;20035;-62
2022/06/30 08:02:00;;;;;;;5.55;5.03;;;38.50;59.60;;;;;;4970576;28;20050;-61
2022/06/30 08:04:26;;;;;;;7.03;5.32;;;39.50;57.80;;;;;;4969805;28;20396;-61
2022/06/30 08:06:52;;;;;;;5.75;4.93;;;38.50;59.00;;;;;;4973750;28;20023;-61
2022/06/30 08:09:18;;;;;;;6.78;4.80;;;37.90;59.90;;;;;;4973829;28;20114;-62
2022/06/30 08:11:44;;;;;;;7.88;5.03;;;38.30;60.10;;;;;;4974056;28;20508;-62
2022/06/30 08:14:09;;;;;;;5.63;4.95;;;37.40;59.50;;;;;;4973084;28;20035;-61
2022/06/30 08:16:35;;;;;;;6.05;5.10;;;37.50;60.20;;;;;;4981224;28;20465;-61
2022/06/30 08:19:01;;;;;;;5.53;5.03;;;37.20;60.80;;;;;;4973255;28;20046;-61
2022/06/30 08:21:26;;;;;;;5.45;4.95;;;36.90;60.20;;;;;;4973278;28;20445;-60
2022/06/30 08:23:52;;;;;;;5.22;4.72;;;37.20;60.00;;;;;;4974136;28;20425;-62
2022/06/30 08:26:17;;;;;;;6.10;5.50;;;37.30;60.80;;;;;;4978181;28;20027;-62
2022/06/30 08:28:43;;;;;;;6.93;4.88;;;37.30;59.90;;;;;;4973648;28;20691;-61
2022/06/30 08:31:09;;;;;;;4.88;4.47;;;37.60;61.40;;;;;;4973354;28;20031;-62
2022/06/30 08:33:34;;;;;;;7.15;4.70;;;37.80;59.90;;;;;;4973345;28;20097;-61
2022/06/30 08:36:00;;;;;;;5.95;5.22;;;38.80;58.60;;;;;;4977263;28;20046;-61
2022/06/30 08:38:26;;;;;;;7.00;5.07;;;39.10;58.40;;;;;;4973346;28;20035;-61
2022/06/30 08:43:36;;;;;;;5.13;4.57;;;38.60;57.80;;;;;;4973682;28;20037;-62
2022/06/30 08:46:02;;;;;;;6.28;4.60;;;38.50;59.00;;;;;;4976246;28;20125;-61
2022/06/30 08:48:29;;;;;;;7.60;4.95;;;38.10;59.50;;;;;;4972869;28;20042;-61
2022/06/30 08:51:04;;;;;;;6.10;4.47;;;38.20;58.40;;;;;;4973351;28;20104;-61
2022/06/30 08:53:37;;;;;;;8.52;4.15;;;37.80;58.50;;;;;;4973692;28;20030;-61
2022/06/30 08:56:05;;;;;;;7.40;4.55;;;38.00;57.90;;;;;;4975091;28;20481;-58
2022/06/30 08:58:31;;;;;;;4.35;3.95;;;38.10;58.50;;;;;;4973349;28;20027;-61
2022/06/30 09:00:57;;;;;;;4.22;3.80;;;37.30;57.70;;;;;;4973523;28;20037;-61
2022/06/30 09:03:23;;;;;;;6.43;3.58;;;37.00;58.60;;;;;;4972697;28;20396;-60
2022/06/30 09:05:48;;;;;;;6.30;4.38;;;37.40;58.30;;;;;;4972879;28;20719;-61
2022/06/30 09:08:17;;;;;;;6.45;3.50;;;37.60;57.80;;;;;;4984287;28;20042;-63
2022/06/30 09:10:50;;;;;;;6.45;3.33;;;38.00;57.10;;;;;;4972955;28;20117;-62
2022/06/30 09:13:17;;;;;;;8.48;4.00;;;38.30;56.30;;;;;;4976409;28;20026;-61
2022/06/30 09:15:42;;;;;;;5.82;4.00;;;38.10;56.00;;;;;;4972542;28;20425;-62
2022/06/30 09:18:19;;;;;;;4.03;3.38;;;37.30;57.00;;;;;;4973294;28;20081;-62
2022/06/30 09:20:45;;;;;;;3.85;3.17;;;37.10;57.20;;;;;;4972975;28;20547;-61
2022/06/30 09:23:28;;;;;;;6.47;3.28;;;37.00;54.60;;;;;;4975794;28;20034;-61
2022/06/30 09:25:57;;;;;;;5.00;3.35;;;37.50;53.60;;;;;;4972842;28;20027;-61
2022/06/30 09:28:45;;;;;;;8.60;3.80;;;37.00;56.10;;;;;;4972905;28;20504;-62
2022/06/30 09:31:14;;;;;;;5.15;3.15;;;36.10;56.40;;;;;;4972766;28;20023;-62
2022/06/30 09:33:41;;;;;;;7.78;3.60;;;36.70;58.00;;;;;;4976037;28;20393;-61
2022/06/30 09:36:25;;;;;;;6.00;3.20;;;36.90;57.30;;;;;;4977124;28;20049;-62
2022/06/30 09:38:59;;;;;;;4.38;3.40;;;37.30;54.60;;;;;;4966841;28;20557;-62
2022/06/30 09:41:30;;;;;;;6.45;3.40;;;37.60;56.20;;;;;;4972692;28;20039;-61
2022/06/30 09:43:56;;;;;;;6.40;3.97;;;37.60;56.70;;;;;;4972385;28;20124;-61
2022/06/30 09:46:22;;;;;;;2.80;2.60;;;37.70;54.60;;;;;;4972715;28;20027;-61
2022/06/30 09:48:48;;;;;;;5.13;3.08;;;38.10;53.90;;;;;;4972649;28;20385;-61
2022/06/30 09:51:13;;;;;;;5.72;2.70;;;37.50;53.40;;;;;;4972556;28;20038;-61
2022/06/30 09:53:39;;;;;;;6.05;2.50;;;37.20;54.40;;;;;;4973762;28;20088;-61
2022/06/30 09:56:16;;;;;;;6.03;2.33;;;37.20;52.40;;;;;;4972325;28;20041;-62
2022/06/30 09:58:42;;;;;;;6.68;2.50;;;37.30;52.20;;;;;;4972226;28;20405;-62
2022/06/30 10:01:10;;;;;;;3.88;2.90;;;36.10;52.90;;;;;;4972554;28;20023;-61
2022/06/30 10:03:47;;;;;;;3.95;2.45;;;35.60;55.20;;;;;;4978274;28;20031;-61
2022/06/30 10:06:18;;;;;;;3.00;2.35;;;36.00;53.60;;;;;;4972400;28;20389;-61
2022/06/30 10:08:43;;;;;;;5.75;2.70;;;36.50;53.80;;;;;;4972947;28;20027;-62
2022/06/30 10:11:10;;;;;;;4.10;2.30;;;36.60;55.50;;;;;;4972186;28;20030;-62
2022/06/30 10:13:41;;;;;;;5.57;2.28;;;36.40;54.20;;;;;;4972882;28;20046;-61
2022/06/30 10:16:08;;;;;;;3.03;2.00;;;36.40;53.10;;;;;;4972426;28;20109;-60
2022/06/30 10:18:38;;;;;;;5.75;2.03;;;36.20;53.10;;;;;;4972786;28;20031;-60
2022/06/30 10:21:04;;;;;;;5.63;3.38;;;36.10;51.00;;;;;;4972714;28;20111;-60
2022/06/30 10:23:32;;;;;;;5.55;2.72;;;35.80;53.40;;;;;;4974161;28;20054;-60
2022/06/30 10:25:58;;;;;;;2.63;2.10;;;35.40;52.10;;;;;;4975724;28;20045;-60
2022/06/30 10:28:25;;;;;;;2.42;2.10;;;36.00;53.00;;;;;;4975882;28;20451;-59
2022/06/30 10:31:28;;;;;;;9.45;1.98;;;35.80;52.30;;;;;;4975935;28;20110;-60
2022/06/30 10:34:12;;;;;;;3.95;2.15;;;35.40;51.10;;;;;;4975995;28;20553;-59
2022/06/30 10:36:56;;;;;;;4.60;2.00;;;35.40;54.30;;;;;;4956419;28;20110;-60
2022/06/30 10:39:39;;;;;;;4.10;2.30;;;35.20;53.70;;;;;;4973826;28;20035;-61
2022/06/30 10:42:05;;;;;;;5.28;2.10;;;35.40;53.80;;;;;;4981035;28;20126;-58
2022/06/30 10:44:32;;;;;;;3.03;2.17;;;34.90;54.70;;;;;;4975417;28;20144;-57
2022/06/30 10:46:57;;;;;;;3.53;2.10;;;34.70;53.40;;;;;;4975279;28;20404;-59
2022/06/30 10:49:25;;;;;;;3.42;1.92;;;34.70;51.30;;;;;;4975585;28;20027;-62
2022/06/30 10:51:55;;;;;;;3.92;1.88;;;35.20;52.50;;;;;;4979247;28;20026;-61
2022/06/30 10:54:29;;;;;;;4.53;1.85;;;35.40;51.40;;;;;;4974483;28;20027;-60
2022/06/30 10:56:56;;;;;;;3.95;1.98;;;34.40;53.30;;;;;;4974081;28;20105;-59
2022/06/30 10:59:30;;;;;;;6.13;2.45;;;33.90;53.70;;;;;;4975544;28;20035;-59
2022/06/30 11:02:07;;;;;;;3.35;2.33;;;33.70;53.40;;;;;;4975459;28;20071;-57
2022/06/30 11:04:48;;;;;;;3.55;1.85;;;33.50;54.00;;;;;;4974350;28;20039;-58
2022/06/30 11:07:24;;;;;;;4.00;1.80;;;33.60;55.70;;;;;;4975228;28;20400;-59
2022/06/30 11:09:55;;;;;;;2.67;1.60;;;33.50;53.80;;;;;;4973238;28;20563;-59
2022/06/30 11:12:41;;;;;;;2.78;1.63;;;33.90;51.00;;;;;;4975149;28;20074;-57
2022/06/30 11:15:08;;;;;;;3.92;1.98;;;34.00;51.00;;;;;;4974896;28;20389;-60
2022/06/30 11:17:37;;;;;;;5.55;1.88;;;34.40;51.50;;;;;;4975125;28;20029;-60
2022/06/30 11:20:13;;;;;;;2.70;1.88;;;34.40;50.40;;;;;;4976793;28;20118;-60
2022/06/30 11:22:40;;;;;;;4.13;1.70;;;34.30;50.00;;;;;;4967333;28;20046;-61
2022/06/30 11:27:17;;;;;;;6.05;2.55;;;34.20;50.70;;;;;;4974882;28;20101;-59
2022/06/30 11:28:01;;;;;;;4.68;1.88;;;34.40;51.20;;;;;;4974756;28;20031;-61
2022/06/30 11:30:31;;;;;;;5.65;1.75;;;34.40;52.60;;;;;;4974500;28;20034;-60
2022/06/30 11:32:58;;;;;;;3.15;1.65;;;34.20;54.30;;;;;;4977340;28;20038;-61
2022/06/30 11:35:28;;;;;;;6.18;1.70;;;34.40;53.70;;;;;;4973982;28;20098;-60
2022/06/30 11:37:54;;;;;;;3.38;1.60;;;34.20;51.30;;;;;;4974707;28;20023;-61
2022/06/30 11:40:19;;;;;;;3.53;1.65;;;34.20;52.00;;;;;;4972322;28;20378;-59
2022/06/30 11:42:45;;;;;;;4.25;1.85;;;34.50;50.60;;;;;;4975894;28;20042;-61
2022/06/30 11:45:23;;;;;;;1.92;1.50;;;34.80;51.40;;;;;;4974377;28;20111;-60
2022/06/30 11:48:01;;;;;;;3.05;1.92;;;34.50;49.30;;;;;;4974514;28;20034;-60
2022/06/30 11:50:26;;;;;;;4.07;2.53;;;34.00;50.30;;;;;;4980594;28;20037;-59
2022/06/30 11:52:55;;;;;;;6.57;1.98;;;33.90;52.80;;;;;;4973508;28;20030;-60
2022/06/30 11:55:25;;;;;;;2.75;2.10;;;33.30;53.30;;;;;;4974284;28;20019;-60
2022/06/30 11:57:51;;;;;;;3.92;2.25;;;32.90;52.90;;;;;;4974418;28;20027;-60
2022/06/30 12:00:22;;;;;;;5.82;2.78;;;32.80;55.40;;;;;;4979197;28;20036;-60
2022/06/30 12:02:49;;;;;;;5.75;2.20;;;32.80;54.50;;;;;;4973336;28;20485;-60
2022/06/30 12:05:21;;;;;;;6.00;2.22;;;32.60;53.40;;;;;;4973913;28;20058;-60
2022/06/30 12:07:47;;;;;;;11.07;2.28;;;32.50;54.70;;;;;;4973922;28;20048;-58
2022/06/30 12:10:16;;;;;;;3.45;1.88;;;32.50;54.30;;;;;;4980120;28;20034;-59
2022/06/30 12:12:42;;;;;;;3.35;2.05;;;32.70;54.20;;;;;;4973215;28;20030;-61
2022/06/30 12:15:18;;;;;;;3.17;2.13;;;32.90;54.60;;;;;;4973785;28;20489;-60
2022/06/30 12:17:52;;;;;;;2.90;1.92;;;32.80;52.30;;;;;;4973907;28;20512;-60
2022/06/30 12:20:19;;;;;;;10.55;2.13;;;32.70;53.10;;;;;;4974232;28;20031;-59
2022/06/30 12:22:52;;;;;;;2.35;1.60;;;32.50;52.70;;;;;;4975576;28;20527;-60
2022/06/30 12:25:19;;;;;;;6.88;2.28;;;32.50;53.40;;;;;;4973666;28;20114;-60
2022/06/30 12:27:53;;;;;;;3.78;2.13;;;32.30;53.80;;;;;;4973249;28;20031;-59
2022/06/30 12:30:18;;;;;;;5.55;2.85;;;32.10;54.20;;;;;;4973187;28;20459;-60
2022/06/30 12:32:53;;;;;;;4.85;2.20;;;32.00;55.20;;;;;;4975458;28;20042;-60
2022/06/30 12:35:21;;;;;;;3.53;2.38;;;31.90;53.80;;;;;;4973510;28;20048;-61
2022/06/30 12:37:47;;;;;;;5.15;2.22;;;31.80;54.40;;;;;;4973929;28;20027;-60
2022/06/30 12:40:16;;;;;;;8.02;3.20;;;31.90;56.00;;;;;;4973502;28;20422;-59
2022/06/30 12:42:46;;;;;;;2.60;2.20;;;32.00;55.00;;;;;;4973973;28;20027;-60
2022/06/30 12:45:33;;;;;;;2.35;2.00;;;32.10;56.90;;;;;;4973394;28;20035;-59
2022/06/30 12:47:58;;;;;;;4.60;2.15;;;32.10;55.50;;;;;;4972626;28;20058;-61
2022/06/30 12:50:24;;;;;;;8.32;2.30;;;32.00;54.40;;;;;;4973083;28;20065;-59
2022/06/30 12:52:50;;;;;;;2.95;2.20;;;31.80;55.40;;;;;;4973688;28;20105;-59